Weather at Coll Airport

Public forecast

Using degrees Celsius for public forecast. Weather courtesy of forecast.io.

Closest aviation weather report (METAR) to Coll Airport

Report is more than 6 hours old.

Closest report is Tiree Airport, 10.4 nm (19.2 km) SW.

2024/05/29 17:50 (retrieved 14 hours ago)

EGPU 291750Z 32009KT 9999 FEW007 13/11 Q1009

Closest aviation forecast (TAF) to Coll Airport

Closest forecast is Glasgow International Airport, 85.1 nm (157.5 km) ESE.

2024/05/30 06:00 (retrieved 1 hour ago)

TAF EGPF 300454Z 3006/3106 30009KT 9999 FEW035 PROB30 TEMPO 3012/3018 8000 SHRA PROB30 3100/3106 8000